Stations météo

réclame
Mon MeteoGroup
Stabroek, Belgique (6438): Température de l'air & dewpoint: 14.07.2018 22:00:00 - 20.07.2018 22:00:00 (CEST)Stabroek, Belgique (6438): Vitesse du vent & gusts: 14.07.2018 22:00:00 - 20.07.2018 22:00:00 (CEST)Stabroek, Belgique (6438): Direction du vent: 14.07.2018 22:00:00 - 20.07.2018 22:00:00 (CEST)Stabroek, Belgique (6438): reduced air pressure: 14.07.2018 22:00:00 - 20.07.2018 22:00:00 (CEST)Stabroek, Belgique (6438): Ensoleillement: 14.07.2018 22:00:00 - 20.07.2018 22:00:00 (CEST)Stabroek, Belgique (6438): Quantités de précipitations: 14.07.2018 22:00:00 - 20.07.2018 22:00:00 (CEST)
Date & Time tt [°C] td [°C] ff [km/h] ff [knt] fx [km/h] fx [knt] dd ppp [hPa] sd [min] rr [mm]
20.07.2018 22:00:00 20,6 13,0 6 3 23 13 WNW 1012,9 0 0,0
20.07.2018 21:00:00 21,0 13,2 14 7 18 10 NNW 1012,6 0 0,0
20.07.2018 20:00:00 22,0 13,1 7 4 15 8 NW 1013,3 0 0,0
20.07.2018 19:00:00 23,4 10,6 11 6 20 11 WNW 1013,2 0 0,0
20.07.2018 18:00:00 23,9 9,3 12 7 22 12 NW 1013,4 0 0,0
20.07.2018 17:00:00 24,3 8,7 13 7 27 15 NNW 1013,9 0 0,0
20.07.2018 16:00:00 26,0 9,8 15 8 26 14 NW 1014,1 22 0,0
20.07.2018 15:00:00 26,2 9,9 14 8 29 16 WNW 1014,5 60 0,0
20.07.2018 14:00:00 25,6 10,9 11 6 25 14 NW 1014,7 60 0,0
20.07.2018 13:00:00 25,4 10,8 11 6 19 10 WNW 1015,1 60 0,0
20.07.2018 12:00:00 24,3 13,2 7 4 13 7 NNW 1015,3 60 0,0
20.07.2018 11:00:00 22,5 11,1 7 4 - - N 1015,5 - -
20.07.2018 10:00:00 - - - - - - - - - -
20.07.2018 09:00:00 18,7 15,7 4 2 9 5 W 1016,0 60 0,0
20.07.2018 08:00:00 16,6 14,9 4 2 5 3 NNE 1015,9 60 0,0
20.07.2018 07:00:00 11,2 11,0 0 0 11 6 N 1015,9 23 0,0
20.07.2018 06:00:00 10,7 10,3 4 2 13 7 N 1016,1 0 0,0
20.07.2018 05:00:00 11,3 10,6 4 2 5 3 NNW 1016,6 0 0,0
20.07.2018 04:00:00 12,1 10,9 4 2 6 3 NW 1016,7 0 0,0
20.07.2018 03:00:00 13,4 11,8 4 2 7 4 NW 1017,0 0 0,0
20.07.2018 02:00:00 13,7 11,5 4 2 6 3 NNW 1017,4 0 0,0
20.07.2018 01:00:00 15,4 10,8 4 2 8 4 N 1017,5 0 0,0
20.07.2018 00:00:00 17,0 10,9 5 3 10 6 N 1017,6 0 0,0
19.07.2018 23:00:00 18,4 11,0 5 3 14 8 NNW 1017,8 0 0,0
19.07.2018 22:00:00 20,6 10,4 7 4 16 9 N 1017,8 16 0,0
19.07.2018 21:00:00 22,7 9,5 10 6 24 13 N 1017,7 43 0,0
19.07.2018 20:00:00 23,9 8,6 14 8 28 15 N 1017,6 60 0,0
19.07.2018 19:00:00 24,7 9,6 16 9 28 15 NNW 1017,7 60 0,0
19.07.2018 18:00:00 25,8 10,9 17 9 29 16 NW 1017,8 60 0,0
19.07.2018 17:00:00 25,6 11,7 14 8 - - NW 1018,3 - -
19.07.2018 16:00:00 25,7 12,6 13 7 - - NNW 1018,8 20 -
19.07.2018 15:00:00 25,0 12,2 7 4 25 14 NNW 1018,9 - -
19.07.2018 14:00:00 25,0 11,9 11 6 23 12 N 1019,2 58 0,0
19.07.2018 13:00:00 24,9 12,8 7 4 14 8 NW 1019,4 51 0,0
19.07.2018 12:00:00 24,0 12,9 6 3 14 8 NW 1019,5 60 0,0
19.07.2018 11:00:00 23,0 13,9 6 4 15 8 N 1019,6 60 0,0
19.07.2018 10:00:00 21,5 15,0 7 4 14 7 NNW 1019,9 60 0,0
19.07.2018 09:00:00 19,5 15,8 6 3 10 5 N 1019,9 60 0,0
19.07.2018 08:00:00 17,1 15,5 4 2 8 4 N 1019,7 60 0,0
19.07.2018 07:00:00 12,6 12,1 4 2 5 3 NNW 1019,5 18 0,0
19.07.2018 06:00:00 11,7 11,0 4 2 6 3 WNW 1019,4 0 0,0
19.07.2018 05:00:00 11,9 11,0 4 2 7 4 NNW 1019,5 0 0,0
19.07.2018 04:00:00 13,2 12,2 4 2 7 4 NW 1019,6 0 0,0
19.07.2018 03:00:00 12,3 11,4 0 0 4 2 N 1019,7 0 0,0
19.07.2018 02:00:00 13,0 11,7 4 2 4 2 ESE 1019,8 0 0,0
19.07.2018 01:00:00 14,0 12,3 0 0 4 2 N 1019,8 0 0,0
19.07.2018 00:00:00 16,2 11,9 4 2 8 4 N 1019,7 0 0,0
18.07.2018 23:00:00 18,6 12,3 6 4 10 6 N 1019,7 0 0,0
18.07.2018 22:00:00 20,1 12,5 8 4 16 9 NNW 1019,5 7 0,0
18.07.2018 21:00:00 21,8 12,0 10 5 31 17 NNW 1019,4 55 0,0
18.07.2018 20:00:00 22,6 12,4 18 10 33 18 NW 1019,1 60 0,0
18.07.2018 19:00:00 23,6 13,0 16 9 27 15 NW 1018,9 60 0,0
18.07.2018 18:00:00 25,0 13,6 15 8 29 15 NW 1019,1 60 0,0
18.07.2018 17:00:00 25,0 11,2 16 9 24 13 W 1019,0 60 0,0
18.07.2018 16:00:00 25,3 11,0 10 6 21 11 W 1019,0 60 0,0
18.07.2018 15:00:00 24,4 11,3 7 4 19 11 NW 1019,3 60 0,0
18.07.2018 14:00:00 23,7 13,0 11 6 23 12 WNW 1019,4 37 0,0
18.07.2018 13:00:00 22,8 11,2 10 5 19 10 WNW 1019,6 56 0,0
18.07.2018 12:00:00 21,9 11,2 9 5 20 11 WSW 1019,9 60 0,0
18.07.2018 11:00:00 20,8 11,4 9 5 17 9 SSW 1019,9 60 0,0
18.07.2018 10:00:00 19,6 11,8 10 5 16 9 WSW 1019,9 60 0,0
18.07.2018 09:00:00 18,5 12,2 8 4 13 7 SW 1019,6 60 0,0
18.07.2018 08:00:00 17,3 14,4 4 2 6 3 SE 1019,4 60 0,0
18.07.2018 07:00:00 12,9 11,9 4 2 4 2 E 1019,2 24 0,0
18.07.2018 06:00:00 11,9 11,2 4 2 4 2 E 1019,0 0 0,0
18.07.2018 05:00:00 11,3 10,7 4 2 4 2 E 1019,1 0 0,0
18.07.2018 04:00:00 12,8 11,9 4 2 9 5 ENE 1019,1 0 0,0
18.07.2018 03:00:00 13,0 12,0 4 2 7 4 SSW 1019,0 0 0,0
18.07.2018 02:00:00 14,1 12,8 4 2 6 3 WNW 1018,9 0 0,0
18.07.2018 01:00:00 14,1 12,7 0 0 5 3 N 1018,9 0 0,0
18.07.2018 00:00:00 14,7 12,4 0 0 6 3 N 1018,9 0 0,0
17.07.2018 23:00:00 17,4 12,5 5 3 7 4 WNW 1018,7 0 0,0
17.07.2018 22:00:00 19,4 11,9 5 3 14 7 NNW 1018,2 38 0,0
17.07.2018 21:00:00 21,2 11,4 10 5 23 13 NNW 1017,8 60 0,0
17.07.2018 20:00:00 22,0 9,6 18 10 30 16 W 1017,6 60 0,0
17.07.2018 19:00:00 22,3 9,8 19 11 42 23 WNW 1017,6 60 0,0
17.07.2018 18:00:00 22,4 11,5 27 15 48 26 WNW 1017,4 60 0,0
17.07.2018 17:00:00 22,7 14,0 28 15 41 22 WNW 1017,2 60 0,0
17.07.2018 16:00:00 23,3 14,1 22 12 37 20 WNW 1017,1 60 0,0
17.07.2018 15:00:00 23,2 14,3 21 12 34 18 WNW 1016,9 52 0,0
17.07.2018 14:00:00 23,2 14,8 18 10 34 19 WNW 1016,6 27 0,0
17.07.2018 13:00:00 23,6 15,8 16 8 29 15 WSW 1016,3 42 0,0
17.07.2018 12:00:00 22,2 16,2 14 8 29 16 W 1016,3 56 0,0
17.07.2018 11:00:00 21,1 16,7 15 8 29 16 SW 1016,0 60 0,0
17.07.2018 10:00:00 19,8 16,2 17 9 26 14 WSW 1015,8 60 0,0
17.07.2018 09:00:00 18,7 15,5 14 8 27 14 WSW 1015,3 60 0,0
17.07.2018 08:00:00 18,1 13,8 14 8 29 15 WSW 1014,9 60 0,0
17.07.2018 07:00:00 17,4 12,5 6 3 18 10 SW 1014,4 20 0,0
17.07.2018 06:00:00 17,4 11,9 10 5 20 11 SW 1014,3 0 0,0
17.07.2018 05:00:00 17,5 12,5 11 6 21 11 SW 1014,3 0 0,0
17.07.2018 04:00:00 17,2 16,2 4 2 5 3 SW 1014,0 0 0,0
17.07.2018 03:00:00 17,2 15,9 4 2 13 7 WSW 1014,3 0 0,0
17.07.2018 02:00:00 17,5 15,6 5 3 17 9 W 1014,3 0 0,0
17.07.2018 01:00:00 17,8 15,6 4 2 8 4 NE 1014,0 0 0,0
17.07.2018 00:00:00 18,5 16,5 4 2 8 4 N 1013,8 0 0,0
16.07.2018 23:00:00 18,7 17,0 4 2 20 11 NW 1013,6 0 0,0
16.07.2018 22:00:00 18,6 16,4 8 4 16 9 N 1014,0 0 1,0
16.07.2018 21:00:00 19,3 16,9 9 5 34 19 E 1014,6 0 2,2
16.07.2018 20:00:00 19,6 16,4 29 16 56 30 SSW 1014,0 0 5,1
16.07.2018 19:00:00 28,4 10,5 10 5 20 11 NE 1011,9 19 0,0
16.07.2018 18:00:00 29,8 9,7 7 4 16 8 ENE 1011,9 60 0,0
16.07.2018 17:00:00 30,2 10,5 8 4 14 8 N 1012,3 41 0,0
16.07.2018 16:00:00 29,6 10,2 5 3 16 9 S 1012,8 43 0,0
16.07.2018 15:00:00 29,2 9,9 8 5 21 12 N 1013,2 44 0,0
16.07.2018 14:00:00 29,4 9,7 4 2 13 7 S 1013,6 60 0,0
16.07.2018 13:00:00 28,7 9,4 5 3 13 7 E 1014,0 60 0,0
16.07.2018 12:00:00 28,2 9,7 8 4 16 9 S 1014,1 60 0,0
16.07.2018 11:00:00 27,2 8,9 10 6 17 9 SE 1014,2 60 0,0
16.07.2018 10:00:00 25,2 10,7 7 4 11 6 ESE 1014,4 60 0,0
16.07.2018 09:00:00 22,4 11,2 6 3 10 5 SE 1014,6 60 0,0
16.07.2018 08:00:00 18,1 13,3 0 0 4 2 N 1014,5 60 0,0
16.07.2018 07:00:00 13,2 12,2 4 2 5 3 E 1014,5 26 0,0
16.07.2018 06:00:00 12,6 11,5 4 2 5 3 E 1014,5 0 0,0
16.07.2018 05:00:00 12,8 11,6 4 2 5 3 E 1014,4 0 0,0
16.07.2018 04:00:00 14,1 13,1 0 0 3 2 N 1014,8 0 0,0
16.07.2018 03:00:00 15,1 12,8 0 0 3 1 N 1014,9 0 0,0
16.07.2018 02:00:00 16,7 13,6 0 0 4 2 N 1015,2 0 0,0
16.07.2018 01:00:00 17,6 13,5 4 2 5 3 NE 1015,4 0 0,0
16.07.2018 00:00:00 20,9 13,9 5 3 9 5 N 1015,5 0 0,0
15.07.2018 23:00:00 22,4 13,3 7 4 13 7 N 1015,6 0 0,0
15.07.2018 22:00:00 24,2 12,7 7 4 19 10 N 1015,3 25 0,0
15.07.2018 21:00:00 26,7 9,6 11 6 19 11 N 1015,0 50 0,0
15.07.2018 20:00:00 28,0 9,0 14 8 19 10 NE 1014,6 51 0,0
15.07.2018 19:00:00 28,6 7,6 9 5 33 18 NE 1014,7 59 0,0
15.07.2018 18:00:00 29,0 7,1 5 3 16 9 ENE 1015,2 60 0,0
15.07.2018 17:00:00 28,7 8,8 6 4 16 9 NNW 1015,6 56 0,0
15.07.2018 16:00:00 28,6 8,4 8 4 20 11 N 1015,9 60 0,0
15.07.2018 15:00:00 28,1 8,4 8 5 20 11 ENE 1016,5 60 0,0
15.07.2018 14:00:00 27,5 8,4 7 4 24 13 ENE 1017,2 60 0,0
15.07.2018 13:00:00 26,9 10,6 9 5 16 9 NNE 1017,6 60 0,0
15.07.2018 12:00:00 25,9 11,3 6 3 14 8 E 1017,9 60 0,0
15.07.2018 11:00:00 25,2 11,1 5 3 13 7 E 1018,1 60 0,0
15.07.2018 10:00:00 23,1 13,1 5 3 9 5 E 1018,4 60 0,0
15.07.2018 09:00:00 20,7 13,6 4 2 10 6 E 1018,3 60 0,0
15.07.2018 08:00:00 17,4 13,1 4 2 9 5 E 1018,1 60 0,0
15.07.2018 07:00:00 13,5 12,5 4 2 4 2 E 1018,0 27 0,0
15.07.2018 06:00:00 13,6 12,5 4 2 7 4 SSW 1018,2 0 0,0
15.07.2018 05:00:00 14,1 12,7 5 3 10 5 ENE 1018,5 0 0,0
15.07.2018 04:00:00 14,8 13,2 5 3 9 5 NE 1018,6 0 0,0
15.07.2018 03:00:00 15,3 13,2 5 3 9 5 NE 1018,9 0 0,0
15.07.2018 02:00:00 16,1 12,9 4 2 9 5 NE 1019,2 0 0,0
15.07.2018 01:00:00 17,4 12,4 5 3 12 7 NE 1019,3 0 0,0
15.07.2018 00:00:00 18,8 11,1 7 4 13 7 N 1019,3 0 0,0
14.07.2018 23:00:00 20,4 9,9 8 4 14 7 NNE 1019,2 0 0,0
14.07.2018 22:00:00 22,3 9,6 8 5 17 9 N 1018,9 48 0,0

tt = Température de l'air
td = dewpoint
ff = Vitesse du vent
fx = gusts
dd = Direction du vent
ppp = reduced air pressure
sd = Ensoleillement
rr = Quantités de précipitations

stations d'obs. à proximité